createdAt,value
2023-04-15T00:01:02.772Z,1.85
2023-04-15T00:03:30.035Z,2.47
2023-04-15T00:05:58.389Z,1.73
2023-04-15T00:08:25.672Z,2.30
2023-04-15T00:10:52.944Z,2.25
2023-04-15T00:13:20.376Z,2.97
2023-04-15T00:15:48.217Z,2.92
2023-04-15T00:18:15.287Z,3.08
2023-04-15T00:20:42.432Z,3.30
2023-04-15T00:23:09.562Z,2.40
2023-04-15T00:26:01.781Z,2.65
2023-04-15T00:28:28.633Z,2.55
2023-04-15T00:30:55.581Z,2.38
2023-04-15T00:33:22.495Z,2.80
2023-04-15T00:35:49.527Z,2.40
2023-04-15T00:38:16.349Z,3.25
2023-04-15T00:40:43.713Z,2.47
2023-04-15T00:43:10.560Z,2.28
2023-04-15T00:45:37.475Z,2.38
2023-04-15T00:48:04.693Z,1.75
2023-04-15T00:53:13.444Z,2.20
2023-04-15T00:55:41.370Z,2.10
2023-04-15T00:58:08.209Z,2.40
2023-04-15T01:00:36.041Z,2.83
2023-04-15T01:03:03.369Z,2.90
2023-04-15T01:05:30.536Z,2.75
2023-04-15T01:07:57.372Z,2.95
2023-04-15T01:16:09.743Z,3.58
2023-04-15T01:21:19.463Z,2.20
2023-04-15T01:23:48.557Z,2.38
2023-04-15T01:42:04.225Z,2.70
2023-04-15T01:47:12.647Z,2.40
2023-04-15T01:49:39.745Z,2.58
2023-04-15T01:52:06.859Z,2.67
2023-04-15T01:54:33.988Z,1.98
2023-04-15T01:57:01.037Z,2.40
2023-04-15T01:59:28.846Z,2.80
2023-04-15T02:01:56.350Z,2.50
2023-04-15T02:04:23.792Z,2.80
2023-04-15T02:06:50.648Z,2.63
2023-04-15T02:09:17.463Z,2.92
2023-04-15T02:11:44.298Z,2.80
2023-04-15T02:14:11.107Z,2.95
2023-04-15T02:16:38.403Z,2.40
2023-04-15T02:19:05.287Z,2.50
2023-04-15T02:24:00.719Z,2.53
2023-04-15T02:26:27.657Z,2.88
2023-04-15T02:28:55.046Z,2.42
2023-04-15T02:31:22.005Z,3.20
2023-04-15T02:36:24.365Z,3.00
2023-04-15T02:38:51.503Z,2.80
2023-04-15T02:41:28.895Z,2.90
2023-04-15T02:43:55.946Z,3.33
2023-04-15T02:49:11.533Z,1.70
2023-04-15T02:54:21.177Z,1.50
2023-04-15T02:56:48.004Z,1.00
2023-04-15T02:59:14.822Z,0.95
2023-04-15T03:07:05.802Z,0.90
2023-04-15T03:12:14.523Z,1.13
2023-04-15T03:18:05.039Z,1.00
2023-04-15T03:20:48.929Z,1.40
2023-04-15T03:23:16.236Z,1.10
2023-04-15T03:28:18.493Z,1.38
2023-04-15T03:30:45.314Z,1.42
2023-04-15T03:33:12.150Z,2.22
2023-04-15T03:35:39.133Z,2.40
2023-04-15T03:38:06.016Z,2.38
2023-04-15T03:40:32.911Z,2.55
2023-04-15T03:42:59.754Z,1.52
2023-04-15T03:48:18.342Z,1.95
2023-04-15T03:50:46.117Z,1.77
2023-04-15T03:53:13.055Z,2.13
2023-04-15T03:55:40.152Z,2.35
2023-04-15T03:58:07.041Z,2.20
2023-04-15T04:00:33.890Z,2.53
2023-04-15T04:03:00.902Z,2.60
2023-04-15T04:07:53.247Z,2.47
2023-04-15T04:10:20.216Z,1.95
2023-04-15T04:12:47.116Z,1.77
2023-04-15T04:15:13.996Z,2.42
2023-04-15T04:17:40.963Z,1.50
2023-04-15T04:20:08.452Z,1.80
2023-04-15T04:22:40.204Z,1.80
2023-04-15T04:27:41.034Z,2.00
2023-04-15T04:30:08.700Z,1.17
2023-04-15T04:32:35.548Z,1.92
2023-04-15T04:35:02.489Z,1.30
2023-04-15T04:43:22.023Z,1.17
2023-04-15T04:45:48.934Z,1.23
2023-04-15T04:48:17.160Z,0.98
2023-04-15T04:50:44.709Z,1.20
2023-04-15T04:53:12.166Z,1.33
2023-04-15T04:55:39.016Z,0.73
2023-04-15T04:58:05.853Z,0.60
2023-04-15T05:08:31.556Z,0.70
2023-04-15T05:16:25.992Z,2.00
2023-04-15T05:18:52.828Z,1.95
2023-04-15T05:21:20.127Z,1.33
2023-04-15T05:23:47.386Z,1.00
2023-04-15T05:26:14.264Z,0.70
2023-04-15T05:28:41.540Z,0.38
2023-04-15T05:31:08.755Z,0.45
2023-04-15T05:33:35.849Z,0.55
2023-04-15T05:36:02.768Z,0.65
2023-04-15T05:38:29.648Z,0.65
2023-04-15T05:40:56.696Z,0.40
2023-04-15T05:43:32.226Z,0.70
2023-04-15T05:45:59.103Z,0.65
2023-04-15T05:48:26.077Z,0.80
2023-04-15T05:50:53.216Z,2.08
2023-04-15T05:53:20.068Z,1.45
2023-04-15T05:58:28.568Z,0.65
2023-04-15T06:00:55.864Z,1.33
2023-04-15T06:03:23.206Z,3.95
2023-04-15T06:05:50.173Z,1.70
2023-04-15T06:08:17.139Z,1.83
2023-04-15T06:10:44.015Z,14.38
2023-04-15T06:13:10.925Z,2.67
2023-04-15T06:15:37.767Z,0.70
2023-04-15T06:18:05.307Z,1.30
2023-04-15T06:20:32.180Z,2.10
2023-04-15T06:23:02.048Z,1.73
2023-04-15T06:25:37.608Z,1.70
2023-04-15T06:28:13.879Z,1.48
2023-04-15T06:30:44.085Z,0.60
2023-04-15T06:33:11.039Z,0.60
2023-04-15T06:35:37.789Z,0.80
2023-04-15T06:38:04.864Z,0.65
2023-04-15T06:40:31.719Z,0.40
2023-04-15T06:42:58.535Z,0.68
2023-04-15T06:45:27.807Z,0.55
2023-04-15T06:47:54.741Z,0.80
2023-04-15T06:50:21.648Z,1.30
2023-04-15T06:52:48.757Z,0.32
2023-04-15T06:55:15.608Z,0.60
2023-04-15T07:00:19.305Z,1.60
2023-04-15T07:02:46.883Z,1.67
2023-04-15T07:05:14.029Z,0.77
2023-04-15T07:07:41.141Z,0.68
2023-04-15T07:10:08.555Z,0.65
2023-04-15T07:12:35.985Z,0.98
2023-04-15T07:15:03.680Z,0.60
2023-04-15T07:17:30.588Z,0.80
2023-04-15T07:19:57.489Z,0.80
2023-04-15T07:25:17.797Z,0.85
2023-04-15T07:27:50.707Z,1.15
2023-04-15T07:30:18.387Z,1.10
2023-04-15T07:32:45.215Z,1.10
2023-04-15T07:35:12.029Z,0.93
2023-04-15T07:37:41.977Z,0.90
2023-04-15T07:40:09.876Z,0.70
2023-04-15T07:50:47.758Z,1.30
2023-04-15T07:53:14.778Z,1.42
2023-04-15T07:55:41.536Z,1.05
2023-04-15T07:58:08.937Z,1.00
2023-04-15T08:00:36.182Z,1.00
2023-04-15T08:03:12.600Z,1.00
2023-04-15T08:08:58.338Z,1.10
2023-04-15T08:11:27.788Z,0.98
2023-04-15T08:13:56.055Z,1.27
2023-04-15T08:16:28.353Z,1.53
2023-04-15T08:18:58.693Z,2.30
2023-04-15T08:21:25.627Z,1.13
2023-04-15T08:24:04.292Z,1.17
2023-04-15T08:26:31.333Z,1.40
2023-04-15T08:28:58.340Z,4.28
2023-04-15T08:31:35.213Z,1.95
2023-04-15T08:34:05.567Z,1.88
2023-04-15T08:36:49.515Z,1.92
2023-04-15T08:39:16.717Z,2.35
2023-04-15T08:41:54.009Z,2.10
2023-04-15T08:44:21.030Z,1.70
2023-04-15T08:46:48.866Z,1.42
2023-04-15T08:49:15.781Z,1.60
2023-04-15T08:51:42.911Z,1.60
2023-04-15T08:54:19.086Z,1.60
2023-04-15T08:57:27.811Z,1.60
2023-04-15T09:02:45.909Z,2.08
2023-04-15T09:11:17.110Z,2.10
2023-04-15T09:14:06.750Z,1.70
2023-04-15T09:17:36.162Z,1.70
2023-04-15T09:26:51.096Z,2.08
2023-04-15T09:29:29.935Z,1.90
2023-04-15T09:32:16.526Z,2.42
2023-04-15T09:34:44.398Z,1.92
2023-04-15T09:38:06.653Z,1.80
2023-04-15T09:40:55.747Z,1.83
2023-04-15T09:51:03.013Z,2.65
2023-04-15T09:57:02.332Z,3.13
2023-04-15T10:00:19.825Z,2.90
2023-04-15T10:02:48.748Z,2.35
2023-04-15T10:05:17.861Z,3.00
2023-04-15T10:07:46.647Z,2.40
2023-04-15T10:10:13.582Z,2.80
2023-04-15T10:12:41.796Z,7.80
2023-04-15T10:15:19.503Z,3.40
2023-04-15T10:17:50.487Z,1.73
2023-04-15T10:30:09.565Z,8.10
2023-04-15T10:44:03.763Z,2.47
2023-04-15T10:46:47.048Z,1.63
2023-04-15T10:49:44.159Z,1.77
2023-04-15T10:52:13.105Z,1.30
2023-04-15T10:57:21.484Z,1.20
2023-04-15T11:00:31.453Z,2.38
2023-04-15T11:03:18.204Z,1.63
2023-04-15T11:05:55.151Z,1.77
2023-04-15T11:09:20.498Z,1.75
2023-04-15T11:19:48.156Z,1.60
2023-04-15T11:22:15.240Z,2.05
2023-04-15T11:24:50.673Z,1.38
2023-04-15T11:27:22.053Z,1.75
2023-04-15T11:29:48.865Z,2.25
2023-04-15T11:32:15.880Z,2.45
2023-04-15T11:34:45.552Z,2.00
2023-04-15T11:37:12.437Z,2.20
2023-04-15T11:39:41.761Z,2.20
2023-04-15T11:42:18.329Z,3.83
2023-04-15T11:44:45.399Z,6.22
2023-04-15T11:47:24.978Z,25.60
2023-04-15T11:49:55.909Z,13.95
2023-04-15T11:52:22.712Z,10.38
2023-04-15T11:54:50.806Z,4.95
2023-04-15T11:57:17.836Z,19.73
2023-04-15T11:59:46.165Z,8.57
2023-04-15T12:02:14.404Z,2.50
2023-04-15T12:04:41.737Z,15.70
2023-04-15T12:07:09.012Z,4.75
2023-04-15T12:09:39.948Z,2.97
2023-04-15T12:12:07.544Z,3.28
2023-04-15T12:14:34.360Z,1.60
2023-04-15T12:17:04.992Z,2.28
2023-04-15T12:19:42.075Z,1.95
2023-04-15T12:22:16.175Z,2.42
2023-04-15T12:24:48.797Z,3.15
2023-04-15T12:27:17.934Z,1.52
2023-04-15T12:29:44.863Z,0.93
2023-04-15T12:32:13.309Z,2.70
2023-04-15T12:34:53.216Z,1.40
2023-04-15T12:37:20.374Z,3.50
2023-04-15T12:39:48.975Z,6.35
2023-04-15T12:42:16.163Z,1.25
2023-04-15T12:44:43.235Z,0.98
2023-04-15T12:47:10.945Z,0.90
2023-04-15T12:49:37.859Z,2.67
2023-04-15T12:52:04.900Z,1.40
2023-04-15T12:54:31.895Z,1.10
2023-04-15T12:56:59.022Z,1.30
2023-04-15T12:59:26.071Z,1.05
2023-04-15T13:01:54.441Z,2.70
2023-04-15T13:04:22.028Z,1.40
2023-04-15T13:06:49.086Z,1.73
2023-04-15T13:09:16.188Z,1.92
2023-04-15T13:11:43.165Z,2.75
2023-04-15T13:14:11.714Z,3.90
2023-04-15T13:16:38.798Z,1.90
2023-04-15T13:19:05.672Z,2.75
2023-04-15T13:21:35.712Z,3.47
2023-04-15T13:24:03.269Z,1.40
2023-04-15T13:26:31.378Z,1.70
2023-04-15T13:28:58.206Z,1.42
2023-04-15T13:31:25.320Z,2.25
2023-04-15T13:33:52.221Z,2.65
2023-04-15T13:36:19.384Z,1.20
2023-04-15T13:38:46.777Z,1.50
2023-04-15T13:41:14.917Z,2.10
2023-04-15T13:43:41.877Z,1.45
2023-04-15T13:46:08.721Z,1.45
2023-04-15T13:48:38.683Z,1.50
2023-04-15T13:51:37.047Z,1.17
2023-04-15T13:54:04.117Z,1.10
2023-04-15T14:00:28.550Z,0.93
2023-04-15T14:03:21.256Z,1.13
2023-04-15T14:05:55.871Z,1.67
2023-04-15T14:08:24.188Z,2.05
2023-04-15T14:10:51.259Z,1.63
2023-04-15T14:13:22.321Z,1.50
2023-04-15T14:15:55.251Z,3.08
2023-04-15T14:18:22.123Z,2.63
2023-04-15T14:23:25.435Z,3.65
2023-04-15T14:25:56.114Z,3.80
2023-04-15T14:28:23.878Z,5.72
2023-04-15T14:30:50.975Z,2.08
2023-04-15T14:33:23.572Z,2.25
2023-04-15T14:35:51.478Z,1.75
2023-04-15T14:38:23.802Z,1.20
2023-04-15T14:40:50.998Z,1.92
2023-04-15T14:43:17.874Z,5.25
2023-04-15T14:45:45.543Z,1.35
2023-04-15T14:48:12.748Z,7.68
2023-04-15T14:50:40.458Z,10.00
2023-04-15T14:53:07.405Z,5.43
2023-04-15T14:58:28.093Z,1.58
2023-04-15T15:00:54.953Z,1.85
2023-04-15T15:03:22.065Z,1.80
2023-04-15T15:05:49.182Z,0.90
2023-04-15T15:08:17.177Z,0.82
2023-04-15T15:10:49.552Z,1.00
2023-04-15T15:13:20.423Z,1.40
2023-04-15T15:15:51.181Z,1.35
2023-04-15T15:18:19.627Z,1.70
2023-04-15T15:20:47.984Z,1.38
2023-04-15T15:23:14.881Z,3.20
2023-04-15T15:25:51.490Z,2.75
2023-04-15T15:28:18.407Z,4.28
2023-04-15T15:31:00.756Z,5.93
2023-04-15T15:33:34.723Z,7.15
2023-04-15T15:36:35.574Z,9.02
2023-04-15T15:39:02.768Z,6.10
2023-04-15T15:41:33.387Z,5.72
2023-04-15T15:44:01.081Z,6.05
2023-04-15T15:46:31.482Z,4.45
2023-04-15T15:51:39.895Z,2.53
2023-04-15T15:54:11.124Z,3.40
2023-04-15T15:56:41.713Z,3.30
2023-04-15T15:59:10.953Z,3.97
2023-04-15T16:01:37.891Z,5.95
2023-04-15T16:04:09.991Z,2.80
2023-04-15T16:06:36.965Z,2.53
2023-04-15T16:09:04.104Z,2.67
2023-04-15T16:11:31.218Z,3.80
2023-04-15T16:13:58.025Z,4.90
2023-04-15T16:16:26.015Z,2.25
2023-04-15T16:18:52.865Z,3.65
2023-04-15T16:21:20.314Z,6.45
2023-04-15T16:23:47.326Z,8.15
2023-04-15T16:26:14.145Z,8.27
2023-04-15T16:28:40.972Z,7.28
2023-04-15T16:31:07.758Z,5.07
2023-04-15T16:33:35.701Z,4.80
2023-04-15T16:36:03.616Z,3.75
2023-04-15T16:38:30.716Z,5.93
2023-04-15T16:41:01.125Z,7.72
2023-04-15T16:43:28.475Z,7.20
2023-04-15T16:45:55.716Z,5.40
2023-04-15T16:48:34.853Z,4.18
2023-04-15T16:53:28.916Z,3.42
2023-04-15T16:55:55.771Z,1.70
2023-04-15T16:58:23.327Z,3.60
2023-04-15T17:00:51.247Z,9.38
2023-04-15T17:05:53.528Z,9.25
2023-04-15T17:11:01.828Z,10.85
2023-04-15T17:14:02.815Z,13.75
2023-04-15T17:16:34.816Z,10.00
2023-04-15T17:19:01.766Z,8.80
2023-04-15T17:21:28.712Z,14.38
2023-04-15T17:23:55.895Z,8.32
2023-04-15T17:26:22.805Z,1.73
2023-04-15T17:28:49.898Z,3.97
2023-04-15T17:31:16.728Z,3.47
2023-04-15T17:33:57.473Z,4.32
2023-04-15T17:36:31.689Z,6.65
2023-04-15T17:38:58.578Z,6.53
2023-04-15T17:41:25.483Z,4.47
2023-04-15T17:43:52.450Z,4.05
2023-04-15T17:46:19.474Z,8.63
2023-04-15T17:48:47.973Z,7.35
2023-04-15T17:51:15.270Z,6.97
2023-04-15T17:53:42.137Z,6.68
2023-04-15T17:56:09.250Z,10.60
2023-04-15T17:58:36.125Z,11.40
2023-04-15T18:01:02.981Z,5.88
2023-04-15T18:03:29.957Z,5.68
2023-04-15T18:05:56.922Z,5.22
2023-04-15T18:08:23.771Z,8.52
2023-04-15T18:10:50.599Z,10.18
2023-04-15T18:13:17.515Z,10.20
2023-04-15T18:15:46.806Z,50.15
2023-04-15T18:22:22.608Z,49.88
2023-04-15T18:24:52.160Z,52.92
2023-04-15T18:27:19.008Z,40.15
2023-04-15T18:29:45.776Z,25.35
2023-04-15T18:32:12.986Z,27.20
2023-04-15T18:34:39.879Z,28.85
2023-04-15T18:37:07.146Z,26.73
2023-04-15T18:39:34.123Z,24.92
2023-04-15T18:42:02.263Z,22.98
2023-04-15T18:44:29.104Z,27.60
2023-04-15T18:46:56.310Z,12.00
2023-04-15T18:49:23.356Z,28.27
2023-04-15T18:51:50.681Z,46.45
2023-04-15T18:54:17.568Z,46.35
2023-04-15T18:56:44.865Z,47.10
2023-04-15T18:59:28.846Z,47.25
2023-04-15T19:01:57.968Z,39.10
2023-04-15T19:04:25.067Z,45.72
2023-04-15T19:06:52.037Z,31.92
2023-04-15T19:09:18.972Z,91.05
2023-04-15T19:11:45.836Z,43.55
2023-04-15T19:14:12.664Z,60.38
2023-04-15T19:16:39.520Z,61.58
2023-04-15T19:19:06.828Z,123.93
2023-04-15T19:21:34.522Z,43.33
2023-04-15T19:24:01.396Z,60.25
2023-04-15T19:26:28.550Z,34.95
2023-04-15T19:28:58.951Z,26.35
2023-04-15T19:31:26.348Z,29.05
2023-04-15T19:33:53.358Z,17.13
2023-04-15T19:36:20.392Z,8.82
2023-04-15T19:38:47.293Z,6.82
2023-04-15T19:41:14.621Z,6.05
2023-04-15T19:43:41.540Z,5.40
2023-04-15T19:46:11.612Z,4.72
2023-04-15T19:48:38.614Z,5.25
2023-04-15T19:51:05.979Z,7.50
2023-04-15T19:53:32.887Z,6.55
2023-04-15T19:55:59.793Z,6.93
2023-04-15T19:58:26.710Z,5.65
2023-04-15T20:00:53.643Z,5.35
2023-04-15T20:03:21.070Z,4.55
2023-04-15T20:05:48.083Z,5.28
2023-04-15T20:08:14.940Z,5.90
2023-04-15T20:10:41.780Z,6.47
2023-04-15T20:13:08.645Z,5.50
2023-04-15T20:15:35.882Z,4.65
2023-04-15T20:18:02.891Z,5.00
2023-04-15T20:20:29.843Z,5.40
2023-04-15T20:22:56.753Z,5.65
2023-04-15T20:25:23.718Z,5.93
2023-04-15T20:27:50.883Z,6.85
2023-04-15T20:30:20.755Z,6.63
2023-04-15T20:32:47.689Z,14.05
2023-04-15T20:35:14.541Z,18.42
2023-04-15T20:37:43.205Z,13.90
2023-04-15T20:40:10.546Z,12.15
2023-04-15T20:42:38.006Z,4.97
2023-04-15T20:45:07.055Z,6.82
2023-04-15T20:47:34.177Z,3.58
2023-04-15T20:50:01.057Z,2.75
2023-04-15T20:52:27.882Z,2.33
2023-04-15T20:54:54.793Z,3.38
2023-04-15T20:57:21.617Z,2.90
2023-04-15T20:59:48.475Z,2.72
2023-04-15T21:02:15.746Z,3.42
2023-04-15T21:04:42.658Z,2.60
2023-04-15T21:07:10.191Z,2.20
2023-04-15T21:09:38.798Z,2.53
2023-04-15T21:12:05.594Z,1.90
2023-04-15T21:14:32.632Z,2.30
2023-04-15T21:16:59.628Z,2.20
2023-04-15T21:19:26.533Z,2.28
2023-04-15T21:21:53.489Z,3.72
2023-04-15T21:24:20.366Z,4.50
2023-04-15T21:26:47.190Z,4.75
2023-04-15T21:29:14.257Z,3.78
2023-04-15T21:31:41.356Z,4.35
2023-04-15T21:34:08.331Z,3.70
2023-04-15T21:36:35.383Z,4.53
2023-04-15T21:39:02.456Z,6.05
2023-04-15T21:41:29.397Z,4.78
2023-04-15T21:43:56.258Z,7.82
2023-04-15T21:46:25.549Z,6.28
2023-04-15T21:48:54.062Z,3.20
2023-04-15T21:51:25.303Z,3.38
2023-04-15T21:53:52.755Z,2.97
2023-04-15T21:56:21.269Z,1.30
2023-04-15T21:58:48.096Z,1.83
2023-04-15T22:01:15.028Z,1.70
2023-04-15T22:03:42.131Z,1.75
2023-04-15T22:06:09.136Z,2.10
2023-04-15T22:08:48.376Z,1.52
2023-04-15T22:11:27.194Z,2.00
2023-04-15T22:13:54.796Z,1.35
2023-04-15T22:16:21.741Z,2.03
2023-04-15T22:18:48.784Z,1.95
2023-04-15T22:21:15.690Z,2.38
2023-04-15T22:23:42.482Z,2.10
2023-04-15T22:26:09.374Z,2.08
2023-04-15T22:28:36.258Z,1.83
2023-04-15T22:31:03.160Z,1.73
2023-04-15T22:33:30.120Z,2.88
2023-04-15T22:35:57.183Z,2.28
2023-04-15T22:38:24.570Z,2.75
2023-04-15T22:40:53.990Z,1.83
2023-04-15T22:43:21.038Z,1.83
2023-04-15T22:45:51.275Z,1.40
2023-04-15T22:48:18.767Z,2.65
2023-04-15T22:50:45.896Z,1.52
2023-04-15T22:53:12.892Z,1.48
2023-04-15T22:55:39.741Z,1.38
2023-04-15T22:58:06.725Z,1.67
2023-04-15T23:00:33.546Z,2.15
2023-04-15T23:03:00.850Z,1.65
2023-04-15T23:05:28.172Z,1.20
2023-04-15T23:07:55.146Z,1.60
2023-04-15T23:10:22.120Z,1.27
2023-04-15T23:12:48.971Z,1.10
2023-04-15T23:15:16.020Z,1.38
2023-04-15T23:17:43.439Z,1.35
2023-04-15T23:20:11.424Z,1.77
2023-04-15T23:22:38.674Z,2.75
2023-04-15T23:25:06.321Z,2.17
2023-04-15T23:27:33.187Z,2.28
2023-04-15T23:29:59.983Z,2.35
2023-04-15T23:32:27.605Z,1.52
2023-04-15T23:34:54.520Z,2.45
2023-04-15T23:37:21.455Z,2.13
2023-04-15T23:39:48.314Z,1.83
2023-04-15T23:42:15.187Z,1.13
2023-04-15T23:44:42.015Z,0.75
2023-04-15T23:47:09.070Z,1.05
2023-04-15T23:49:37.057Z,1.00
2023-04-15T23:52:03.980Z,1.98
2023-04-15T23:54:30.874Z,1.10
2023-04-15T23:56:57.614Z,0.80
2023-04-15T23:59:24.445Z,0.80
